createdAt,value
2018-11-28T00:00:23.129Z,3.35
2018-11-28T00:01:15.318Z,3.46
2018-11-28T00:02:07.565Z,3.53
2018-11-28T00:02:59.878Z,3.63
2018-11-28T00:03:52.345Z,3.78
2018-11-28T00:04:45.305Z,3.8
2018-11-28T00:05:38.049Z,3.88
2018-11-28T00:06:30.206Z,4
2018-11-28T00:07:22.542Z,4.06
2018-11-28T00:08:14.752Z,4.06
2018-11-28T00:09:07.194Z,4.07
2018-11-28T00:09:59.718Z,4.06
2018-11-28T00:10:52.076Z,4.06
2018-11-28T00:11:44.357Z,3.96
2018-11-28T00:12:36.524Z,3.95
2018-11-28T00:13:29.036Z,4.02
2018-11-28T00:14:21.151Z,4.08
2018-11-28T00:15:12.911Z,4.21
2018-11-28T00:16:05.928Z,4.29
2018-11-28T00:16:58.338Z,4.29
2018-11-28T00:17:50.319Z,4.31
2018-11-28T00:18:43.507Z,4.29
2018-11-28T00:19:35.419Z,4.29
2018-11-28T00:20:28.068Z,4.26
2018-11-28T00:21:20.022Z,4.21
2018-11-28T00:22:12.630Z,4.29
2018-11-28T00:23:05.004Z,4.18
2018-11-28T00:23:57.178Z,4.16
2018-11-28T00:24:49.417Z,4.06
2018-11-28T00:25:41.229Z,3.89
2018-11-28T00:26:32.908Z,3.84
2018-11-28T00:27:25.372Z,3.59
2018-11-28T00:28:17.340Z,3.54
2018-11-28T00:29:09.891Z,3.57
2018-11-28T00:30:02.419Z,3.42
2018-11-28T00:30:54.184Z,3.49
2018-11-28T00:31:46.429Z,3.34
2018-11-28T00:32:38.493Z,3.34
2018-11-28T00:33:31.051Z,3.34
2018-11-28T00:34:23.087Z,3.26
2018-11-28T00:35:15.741Z,3.35
2018-11-28T00:36:07.793Z,3.3
2018-11-28T00:37:00.010Z,3.33
2018-11-28T00:37:51.629Z,3.37
2018-11-28T00:38:45.055Z,3.33
2018-11-28T00:39:37.453Z,3.2
2018-11-28T00:40:29.861Z,3.26
2018-11-28T00:41:22.361Z,3.31
2018-11-28T00:42:14.911Z,3.31
2018-11-28T00:43:07.851Z,3.46
2018-11-28T00:44:00.451Z,3.5
2018-11-28T00:44:52.791Z,3.5
2018-11-28T00:45:45.263Z,3.41
2018-11-28T00:46:37.819Z,3.44
2018-11-28T00:47:30.482Z,3.44
2018-11-28T00:48:23.035Z,3.54
2018-11-28T00:49:15.339Z,3.57
2018-11-28T00:50:07.665Z,3.84
2018-11-28T00:50:59.987Z,3.77
2018-11-28T00:51:52.407Z,3.8
2018-11-28T00:52:44.348Z,3.78
2018-11-28T00:53:36.016Z,3.75
2018-11-28T00:54:28.881Z,3.64
2018-11-28T00:55:21.359Z,3.6
2018-11-28T00:56:14.331Z,3.63
2018-11-28T00:57:06.133Z,3.57
2018-11-28T00:57:58.364Z,3.62
2018-11-28T00:58:50.497Z,3.62
2018-11-28T00:59:43.175Z,3.67
2018-11-28T01:00:34.699Z,3.62
2018-11-28T01:01:26.673Z,3.63
2018-11-28T01:02:18.881Z,3.59
2018-11-28T01:03:10.839Z,3.56
2018-11-28T01:04:03.534Z,3.64
2018-11-28T01:04:55.375Z,3.7
2018-11-28T01:05:47.490Z,3.71
2018-11-28T01:06:39.640Z,3.63
2018-11-28T01:07:31.681Z,3.54
2018-11-28T01:08:24.336Z,3.53
2018-11-28T01:09:16.366Z,3.52
2018-11-28T01:11:09.674Z,3.41
2018-11-28T01:12:01.901Z,3.56
2018-11-28T01:12:54.929Z,3.56
2018-11-28T01:13:46.496Z,3.56
2018-11-28T01:15:24.550Z,3.62
2018-11-28T01:16:04.936Z,3.6
2018-11-28T01:16:45.354Z,3.54
2018-11-28T01:17:25.704Z,3.52
2018-11-28T01:18:06.128Z,3.59
2018-11-28T01:18:46.519Z,3.59
2018-11-28T01:19:26.905Z,3.7
2018-11-28T01:20:07.296Z,3.63
2018-11-28T01:20:47.696Z,3.63
2018-11-28T01:21:28.088Z,3.71
2018-11-28T01:22:08.455Z,3.86
2018-11-28T01:22:48.847Z,3.95
2018-11-28T01:23:29.279Z,4.06
2018-11-28T01:24:09.617Z,4.06
2018-11-28T01:24:50.014Z,4.16
2018-11-28T01:25:30.420Z,4.18
2018-11-28T01:26:10.807Z,4.32
2018-11-28T01:27:49.963Z,4.31
2018-11-28T01:28:30.334Z,4.26
2018-11-28T01:29:10.735Z,4.25
2018-11-28T01:29:51.127Z,4.25
2018-11-28T01:31:48.497Z,4.34
2018-11-28T01:32:28.988Z,4.35
2018-11-28T01:33:09.359Z,4.44
2018-11-28T01:33:49.813Z,4.28
2018-11-28T01:34:30.220Z,4.2
2018-11-28T01:35:10.623Z,4.2
2018-11-28T01:35:51.009Z,4.25
2018-11-28T01:36:31.406Z,4.2
2018-11-28T01:38:33.256Z,4.11
2018-11-28T01:39:25.642Z,4.04
2018-11-28T01:40:17.667Z,3.98
2018-11-28T01:41:10.267Z,3.95
2018-11-28T01:42:02.305Z,4.06
2018-11-28T01:42:54.755Z,4.08
2018-11-28T01:43:47.168Z,4.07
2018-11-28T01:44:39.647Z,4.18
2018-11-28T01:45:32.382Z,4.17
2018-11-28T01:46:25.153Z,4.13
2018-11-28T01:47:17.591Z,4.07
2018-11-28T01:48:09.944Z,4.11
2018-11-28T01:49:02.065Z,4.08
2018-11-28T01:49:54.412Z,4.14
2018-11-28T01:50:46.720Z,4.18
2018-11-28T01:51:40.277Z,4.11
2018-11-28T01:52:32.341Z,4.13
2018-11-28T01:53:24.799Z,4.11
2018-11-28T01:54:17.455Z,4.13
2018-11-28T01:55:09.973Z,4.14
2018-11-28T01:56:02.454Z,4.18
2018-11-28T01:56:54.610Z,4.2
2018-11-28T01:57:47.279Z,4.28
2018-11-28T01:58:39.915Z,4.26
2018-11-28T01:59:31.761Z,4.21
2018-11-28T02:00:24.027Z,4.16
2018-11-28T02:01:16.632Z,4.25
2018-11-28T02:02:08.706Z,4.25
2018-11-28T02:03:01.804Z,4.2
2018-11-28T02:03:54.490Z,4.31
2018-11-28T02:04:46.661Z,4.38
2018-11-28T02:05:39.058Z,4.39
2018-11-28T02:06:30.901Z,4.42
2018-11-28T02:07:23.975Z,4.39
2018-11-28T02:08:16.038Z,4.43
2018-11-28T02:09:08.457Z,4.39
2018-11-28T02:10:00.333Z,4.35
2018-11-28T02:10:52.615Z,4.46
2018-11-28T02:11:44.682Z,4.38
2018-11-28T02:12:36.857Z,4.39
2018-11-28T02:13:29.124Z,4.36
2018-11-28T02:14:21.853Z,4.26
2018-11-28T02:15:13.339Z,4.24
2018-11-28T02:15:55.602Z,4.34
2018-11-28T02:16:36.005Z,4.28
2018-11-28T02:17:16.359Z,4.18
2018-11-28T02:17:56.839Z,4.14
2018-11-28T02:18:37.294Z,4.16
2018-11-28T02:19:17.689Z,4.29
2018-11-28T02:19:58.103Z,4.39
2018-11-28T02:20:38.385Z,4.39
2018-11-28T02:21:19.537Z,4.43
2018-11-28T02:22:00.077Z,4.42
2018-11-28T02:22:40.460Z,4.46
2018-11-28T02:23:20.874Z,4.42
2018-11-28T02:24:01.192Z,4.46
2018-11-28T02:24:41.631Z,4.62
2018-11-28T02:25:22.014Z,4.59
2018-11-28T02:26:02.390Z,4.61
2018-11-28T02:26:42.760Z,4.68
2018-11-28T02:27:23.181Z,4.62
2018-11-28T02:28:03.546Z,4.57
2018-11-28T02:28:43.940Z,4.46
2018-11-28T02:29:24.442Z,4.51
2018-11-28T02:30:04.741Z,4.44
2018-11-28T02:30:45.199Z,4.42
2018-11-28T02:31:25.610Z,4.35
2018-11-28T02:32:06.126Z,4.35
2018-11-28T02:32:46.442Z,4.28
2018-11-28T02:33:26.792Z,4.31
2018-11-28T02:34:07.140Z,4.24
2018-11-28T02:34:47.611Z,4.24
2018-11-28T02:35:32.091Z,4.1
2018-11-28T02:36:12.131Z,3.98
2018-11-28T02:36:52.488Z,3.95
2018-11-28T02:37:32.914Z,3.95
2018-11-28T02:38:13.328Z,4.02
2018-11-28T02:38:53.764Z,4.11
2018-11-28T02:39:34.405Z,4.14
2018-11-28T02:40:14.560Z,3.99
2018-11-28T02:40:55.020Z,4.08
2018-11-28T02:41:35.366Z,4.1
2018-11-28T02:42:15.777Z,4.06
2018-11-28T02:42:56.219Z,4.06
2018-11-28T02:43:36.609Z,4.07
2018-11-28T02:44:17.018Z,4.07
2018-11-28T02:44:57.459Z,3.95
2018-11-28T02:45:37.858Z,3.96
2018-11-28T02:46:18.136Z,3.86
2018-11-28T02:46:58.564Z,3.81
2018-11-28T02:47:39.038Z,3.88
2018-11-28T02:48:19.466Z,3.98
2018-11-28T02:48:59.803Z,3.92
2018-11-28T02:49:40.171Z,3.96
2018-11-28T02:50:20.606Z,3.95
2018-11-28T02:51:00.988Z,3.92
2018-11-28T02:51:41.365Z,3.89
2018-11-28T02:52:21.776Z,3.9
2018-11-28T02:53:02.282Z,3.82
2018-11-28T02:53:42.653Z,3.75
2018-11-28T02:54:23.076Z,3.63
2018-11-28T02:55:03.457Z,3.6
2018-11-28T02:55:43.875Z,3.6
2018-11-28T02:56:24.293Z,3.57
2018-11-28T02:57:04.648Z,3.75
2018-11-28T02:57:45.044Z,3.74
2018-11-28T02:58:25.404Z,3.93
2018-11-28T02:59:05.788Z,3.86
2018-11-28T02:59:46.201Z,3.92
2018-11-28T03:00:26.593Z,4.02
2018-11-28T03:01:07.026Z,4.02
2018-11-28T03:01:47.335Z,3.99
2018-11-28T03:02:27.795Z,4.06
2018-11-28T03:03:08.145Z,4.1
2018-11-28T03:03:48.522Z,4.2
2018-11-28T03:04:28.871Z,4.26
2018-11-28T03:05:09.363Z,4.14
2018-11-28T03:05:49.744Z,4.04
2018-11-28T03:06:30.159Z,4.06
2018-11-28T03:07:10.543Z,4.04
2018-11-28T03:07:50.916Z,4.02
2018-11-28T03:08:31.358Z,3.89
2018-11-28T03:09:11.719Z,4.14
2018-11-28T03:09:52.246Z,4.14
2018-11-28T03:10:32.560Z,4.13
2018-11-28T03:11:13.036Z,4.16
2018-11-28T03:11:53.363Z,4.07
2018-11-28T03:12:33.698Z,4.16
2018-11-28T03:13:14.112Z,4.04
2018-11-28T03:13:54.485Z,4.14
2018-11-28T03:14:34.831Z,4.11
2018-11-28T03:15:15.335Z,4.02
2018-11-28T03:15:55.670Z,4.02
2018-11-28T03:16:36.070Z,4.02
2018-11-28T03:17:16.400Z,4.02
2018-11-28T03:17:56.882Z,3.82
2018-11-28T03:18:37.215Z,3.9
2018-11-28T03:19:17.571Z,3.9
2018-11-28T03:19:57.963Z,3.84
2018-11-28T03:20:38.369Z,3.77
2018-11-28T03:21:18.735Z,3.8
2018-11-28T03:21:59.115Z,3.82
2018-11-28T03:22:39.629Z,3.8
2018-11-28T03:23:20.021Z,3.82
2018-11-28T03:24:00.490Z,3.88
2018-11-28T03:24:40.877Z,3.84
2018-11-28T03:25:21.321Z,3.92
2018-11-28T03:26:01.756Z,3.82
2018-11-28T03:26:42.024Z,3.84
2018-11-28T03:27:22.418Z,3.8
2018-11-28T03:28:02.826Z,4.04
2018-11-28T03:28:43.166Z,4
2018-11-28T03:29:23.582Z,4.04
2018-11-28T03:30:04.011Z,4.14
2018-11-28T03:30:44.356Z,4.13
2018-11-28T03:31:24.836Z,4.11
2018-11-28T03:32:05.203Z,4.11
2018-11-28T03:32:45.585Z,4.18
2018-11-28T03:33:26.053Z,4.14
2018-11-28T03:34:06.472Z,4.08
2018-11-28T03:34:46.787Z,4.04
2018-11-28T03:35:27.215Z,4.04
2018-11-28T03:36:07.558Z,4
2018-11-28T03:36:48.142Z,4.06
2018-11-28T03:37:28.456Z,4
2018-11-28T03:38:08.839Z,3.98
2018-11-28T03:38:49.264Z,3.89
2018-11-28T03:39:29.662Z,3.89
2018-11-28T03:40:10.095Z,3.93
2018-11-28T03:40:50.410Z,3.93
2018-11-28T03:41:30.879Z,3.86
2018-11-28T03:42:11.211Z,3.82
2018-11-28T03:42:51.642Z,3.82
2018-11-28T03:43:31.981Z,3.82
2018-11-28T03:44:12.406Z,3.81
2018-11-28T03:44:52.726Z,3.84
2018-11-28T03:45:33.192Z,3.88
2018-11-28T03:46:13.607Z,3.8
2018-11-28T03:46:53.912Z,3.93
2018-11-28T03:47:34.375Z,3.88
2018-11-28T03:48:15.339Z,3.89
2018-11-28T03:48:55.641Z,3.88
2018-11-28T03:49:35.978Z,3.82
2018-11-28T03:50:16.505Z,3.9
2018-11-28T03:50:57.023Z,3.78
2018-11-28T03:51:37.477Z,3.84
2018-11-28T03:52:18.020Z,3.92
2018-11-28T03:52:58.351Z,3.98
2018-11-28T03:53:39.638Z,3.98
2018-11-28T03:54:19.896Z,3.95
2018-11-28T03:55:00.258Z,3.99
2018-11-28T03:55:41.190Z,3.89
2018-11-28T03:56:21.110Z,3.88
2018-11-28T03:57:02.443Z,3.88
2018-11-28T03:57:42.710Z,3.81
2018-11-28T03:58:23.163Z,3.84
2018-11-28T03:59:03.516Z,3.93
2018-11-28T03:59:43.934Z,3.86
2018-11-28T04:00:24.540Z,3.93
2018-11-28T04:01:04.999Z,3.95
2018-11-28T04:01:45.429Z,3.89
2018-11-28T04:02:25.728Z,3.89
2018-11-28T04:03:06.393Z,3.88
2018-11-28T04:03:46.722Z,3.77
2018-11-28T04:04:27.155Z,3.8
2018-11-28T04:05:07.800Z,3.78
2018-11-28T04:05:48.423Z,3.82
2018-11-28T04:06:28.842Z,3.78
2018-11-28T04:07:09.307Z,3.74
2018-11-28T04:07:49.714Z,3.81
2018-11-28T04:08:30.161Z,3.81
2018-11-28T04:09:10.586Z,3.77
2018-11-28T04:09:51.031Z,3.86
2018-11-28T04:10:31.929Z,3.81
2018-11-28T04:11:12.186Z,3.82
2018-11-28T04:11:52.707Z,3.77
2018-11-28T04:12:33.255Z,3.81
2018-11-28T04:13:13.570Z,3.7
2018-11-28T04:13:53.971Z,3.74
2018-11-28T04:14:34.397Z,3.78
2018-11-28T04:15:14.808Z,3.81
2018-11-28T04:15:55.263Z,3.82
2018-11-28T04:16:35.676Z,3.8
2018-11-28T04:17:16.166Z,3.78
2018-11-28T04:17:56.702Z,3.81
2018-11-28T04:18:37.101Z,3.82
2018-11-28T04:19:17.489Z,3.82
2018-11-28T04:19:57.914Z,3.82
2018-11-28T04:20:38.408Z,3.86
2018-11-28T04:21:18.803Z,3.88
2018-11-28T04:21:59.678Z,3.84
2018-11-28T04:22:40.221Z,3.86
2018-11-28T04:23:20.744Z,3.84
2018-11-28T04:24:01.678Z,3.84
2018-11-28T04:24:42.108Z,3.84
2018-11-28T04:25:22.541Z,3.95
2018-11-28T04:26:03.069Z,3.98
2018-11-28T04:26:43.313Z,4
2018-11-28T04:27:23.804Z,4
2018-11-28T05:06:17.156Z,4.1
2018-11-28T05:06:57.639Z,4.14
2018-11-28T05:07:38.721Z,4.11
2018-11-28T05:08:19.086Z,4.02
2018-11-28T05:08:59.536Z,4.07
2018-11-28T05:09:40.002Z,4.07
2018-11-28T05:10:20.353Z,3.98
2018-11-28T05:12:02.676Z,4.06
2018-11-28T05:13:33.649Z,4.1
2018-11-28T05:14:15.159Z,4
2018-11-28T05:14:55.480Z,4.07
2018-11-28T05:15:36.103Z,4.07
2018-11-28T05:16:16.352Z,4.04
2018-11-28T05:16:56.726Z,4.07
2018-11-28T05:17:37.354Z,4.14
2018-11-28T05:18:17.718Z,4.17
2018-11-28T05:18:58.585Z,4.18
2018-11-28T05:19:38.975Z,4.2
2018-11-28T05:20:19.383Z,4.24
2018-11-28T05:21:00.334Z,4.25
2018-11-28T05:21:41.291Z,4.21
2018-11-28T05:22:22.168Z,4.18
2018-11-28T05:23:02.513Z,4.16
2018-11-28T05:23:43.298Z,4.16
2018-11-28T05:24:23.665Z,4.13
2018-11-28T05:25:04.052Z,4.26
2018-11-28T05:25:44.865Z,4.24
2018-11-28T05:26:25.375Z,4.42
2018-11-28T05:27:05.896Z,4.38
2018-11-28T05:27:46.726Z,4.51
2018-11-28T05:28:27.205Z,4.44
2018-11-28T05:29:07.624Z,4.51
2018-11-28T05:29:48.220Z,4.53
2018-11-28T05:30:28.546Z,4.43
2018-11-28T05:31:09.103Z,4.39
2018-11-28T05:31:49.944Z,4.46
2018-11-28T05:32:30.402Z,4.28
2018-11-28T05:33:11.018Z,4.35
2018-11-28T05:33:51.393Z,4.35
2018-11-28T05:34:31.782Z,4.31
2018-11-28T05:35:12.224Z,4.31
2018-11-28T05:35:53.129Z,4.32
2018-11-28T05:36:33.267Z,4.42
2018-11-28T05:37:13.840Z,4.57
2018-11-28T05:37:54.255Z,4.46
2018-11-28T05:38:35.023Z,4.56
2018-11-28T05:39:15.732Z,4.57
2018-11-28T05:39:56.224Z,4.59
2018-11-28T05:40:36.743Z,4.53
2018-11-28T05:41:17.150Z,4.49
2018-11-28T05:41:57.670Z,4.64
2018-11-28T05:42:38.035Z,4.65
2018-11-28T05:43:18.442Z,4.75
2018-11-28T05:43:59.127Z,4.74
2018-11-28T05:44:39.574Z,4.86
2018-11-28T05:45:20.222Z,4.75
2018-11-28T05:46:00.655Z,4.79
2018-11-28T05:46:47.198Z,4.74
2018-11-28T05:47:27.664Z,4.75
2018-11-28T05:52:20.543Z,4.9
2018-11-28T05:53:01.739Z,4.88
2018-11-28T05:53:42.174Z,4.86
2018-11-28T05:54:22.811Z,4.75
2018-11-28T05:55:03.031Z,4.77
2018-11-28T05:55:43.448Z,4.77
2018-11-28T05:56:23.818Z,4.79
2018-11-28T05:57:04.262Z,4.77
2018-11-28T05:57:44.681Z,4.79
2018-11-28T05:58:25.082Z,4.8
2018-11-28T05:59:05.450Z,4.74
2018-11-28T05:59:45.839Z,4.72
2018-11-28T06:00:26.232Z,4.67
2018-11-28T06:01:07.002Z,4.67
2018-11-28T06:01:47.449Z,4.62
2018-11-28T06:02:27.944Z,4.59
2018-11-28T06:04:30.003Z,4.69
2018-11-28T06:05:22.350Z,4.64
2018-11-28T06:06:14.676Z,4.61
2018-11-28T06:07:06.970Z,4.57
2018-11-28T06:08:00.742Z,4.57
2018-11-28T06:08:53.326Z,4.65
2018-11-28T06:09:45.811Z,4.8
2018-11-28T06:10:38.095Z,4.96
2018-11-28T06:11:31.127Z,5.04
2018-11-28T06:12:23.156Z,5.24
2018-11-28T06:13:15.715Z,5.05
2018-11-28T06:14:08.213Z,5.06
2018-11-28T06:15:01.185Z,4.87
2018-11-28T06:15:53.988Z,4.77
2018-11-28T06:16:46.156Z,4.83
2018-11-28T06:17:38.168Z,4.77
2018-11-28T06:18:31.299Z,4.84
2018-11-28T06:19:23.694Z,4.77
2018-11-28T06:20:15.960Z,4.79
2018-11-28T06:21:07.982Z,4.75
2018-11-28T06:22:00.165Z,4.86
2018-11-28T06:22:52.736Z,4.77
2018-11-28T06:23:45.079Z,4.93
2018-11-28T06:24:38.526Z,4.96
2018-11-28T06:25:30.976Z,4.94
2018-11-28T06:26:25.642Z,4.88
2018-11-28T06:27:19.064Z,4.77
2018-11-28T06:28:11.840Z,4.93
2018-11-28T06:29:05.348Z,4.99
2018-11-28T06:31:33.655Z,4.86
2018-11-28T06:32:13.585Z,4.77
2018-11-28T06:32:54.557Z,4.68
2018-11-28T06:33:34.859Z,4.68
2018-11-28T06:34:16.199Z,4.62
2018-11-28T06:34:59.138Z,4.61
2018-11-28T06:35:39.432Z,4.67
2018-11-28T06:36:20.072Z,4.75
2018-11-28T06:37:00.397Z,4.72
2018-11-28T06:37:40.978Z,4.72
2018-11-28T06:38:21.390Z,4.79
2018-11-28T06:40:15.972Z,4.88
2018-11-28T06:40:56.859Z,5.08
2018-11-28T06:41:37.267Z,5.01
2018-11-28T06:42:17.640Z,5.12
2018-11-28T06:42:58.032Z,5.26
2018-11-28T06:44:55.354Z,5.4
2018-11-28T06:45:47.780Z,5.44
2018-11-28T06:46:41.168Z,5.41
2018-11-28T06:47:33.443Z,5.58
2018-11-28T06:48:27.668Z,5.7
2018-11-28T06:49:26.396Z,5.58
2018-11-28T06:50:19.146Z,5.47
2018-11-28T06:51:20.201Z,5.47
2018-11-28T06:52:24.438Z,5.49
2018-11-28T06:53:19.297Z,5.35
2018-11-28T06:54:11.800Z,5.32
2018-11-28T06:55:04.622Z,5.42
2018-11-28T06:55:57.409Z,5.41
2018-11-28T06:56:49.663Z,5.49
2018-11-28T06:57:43.020Z,5.38
2018-11-28T06:58:34.902Z,5.3
2018-11-28T06:59:38.373Z,5.41
2018-11-28T07:01:27.840Z,5.23
2018-11-28T07:02:08.470Z,5.24
2018-11-28T07:02:49.587Z,5.38
2018-11-28T07:03:30.047Z,5.3
2018-11-28T07:04:10.563Z,5.26
2018-11-28T07:04:52.110Z,5.45
2018-11-28T07:05:31.929Z,5.45
2018-11-28T07:06:12.728Z,5.49
2018-11-28T07:06:54.113Z,5.62
2018-11-28T07:07:35.072Z,5.6
2018-11-28T07:08:15.531Z,5.62
2018-11-28T07:08:55.995Z,5.63
2018-11-28T07:09:36.945Z,5.7
2018-11-28T07:10:17.308Z,5.63
2018-11-28T07:10:57.779Z,5.66
2018-11-28T07:11:38.253Z,5.73
2018-11-28T07:12:18.690Z,5.88
2018-11-28T07:12:59.102Z,6.02
2018-11-28T07:13:39.616Z,6.13
2018-11-28T07:14:19.998Z,6.19
2018-11-28T07:15:00.580Z,6.27
2018-11-28T07:15:40.988Z,6.21
2018-11-28T07:16:21.383Z,6.21
2018-11-28T07:17:01.862Z,6.21
2018-11-28T07:17:42.495Z,6.13
2018-11-28T07:18:22.934Z,6.14
2018-11-28T07:19:03.313Z,6.16
2018-11-28T07:19:43.940Z,6.03
2018-11-28T07:20:27.122Z,5.9
2018-11-28T07:21:07.586Z,5.84
2018-11-28T07:21:47.953Z,5.88
2018-11-28T07:22:28.370Z,5.78
2018-11-28T07:23:08.777Z,5.77
2018-11-28T07:23:49.341Z,5.66
2018-11-28T07:24:29.871Z,5.62
2018-11-28T07:25:10.230Z,5.55
2018-11-28T07:27:26.920Z,5.38
2018-11-28T07:28:19.874Z,5.37
2018-11-28T07:29:12.262Z,5.22
2018-11-28T07:30:06.655Z,5.17
2018-11-28T07:30:59.090Z,5.17
2018-11-28T07:31:51.585Z,5.17
2018-11-28T07:32:44.087Z,5.17
2018-11-28T07:33:37.458Z,5.14
2018-11-28T07:34:36.168Z,5.15
2018-11-28T07:35:30.421Z,5.19
2018-11-28T07:36:24.480Z,5.35
2018-11-28T07:37:22.589Z,5.3
2018-11-28T07:38:16.871Z,5.27
2018-11-28T07:39:16.672Z,5.29
2018-11-28T07:40:27.210Z,5.22
2018-11-28T07:41:26.037Z,5.38
2018-11-28T07:42:33.553Z,5.3
2018-11-28T07:43:26.460Z,5.35
2018-11-28T07:45:18.692Z,5.6
2018-11-28T07:45:59.575Z,5.49
2018-11-28T07:46:40.068Z,5.62
2018-11-28T07:47:20.288Z,5.59
2018-11-28T07:48:00.839Z,5.59
2018-11-28T07:48:42.779Z,5.7
2018-11-28T07:49:22.513Z,5.67
2018-11-28T07:50:03.797Z,5.67
2018-11-28T07:50:43.875Z,5.78
2018-11-28T07:51:23.971Z,5.74
2018-11-28T07:52:04.466Z,5.73
2018-11-28T07:52:45.292Z,5.7
2018-11-28T07:53:26.014Z,5.75
2018-11-28T07:54:06.577Z,5.75
2018-11-28T07:54:48.058Z,5.67
2018-11-28T07:55:27.960Z,5.73
2018-11-28T07:56:08.501Z,5.63
2018-11-28T07:56:48.938Z,5.55
2018-11-28T07:57:29.366Z,5.63
2018-11-28T07:58:10.791Z,5.66
2018-11-28T08:00:10.309Z,5.6
2018-11-28T08:00:51.825Z,5.6
2018-11-28T08:01:32.216Z,5.59
2018-11-28T08:02:12.708Z,5.65
2018-11-28T08:02:53.487Z,5.63
2018-11-28T08:03:33.837Z,5.62
2018-11-28T08:04:14.535Z,5.63
2018-11-28T08:04:54.954Z,5.62
2018-11-28T08:05:35.493Z,5.58
2018-11-28T08:06:16.245Z,5.59
2018-11-28T08:06:56.888Z,5.52
2018-11-28T08:07:38.165Z,5.47
2018-11-28T08:08:18.252Z,5.47
2018-11-28T08:08:59.167Z,5.52
2018-11-28T08:09:40.019Z,5.48
2018-11-28T08:10:20.551Z,5.55
2018-11-28T08:11:00.907Z,5.58
2018-11-28T08:11:41.320Z,5.59
2018-11-28T08:12:21.815Z,5.69
2018-11-28T08:13:02.226Z,5.66
2018-11-28T08:13:42.913Z,5.77
2018-11-28T08:14:23.343Z,5.75
2018-11-28T08:15:03.821Z,5.77
2018-11-28T08:15:44.451Z,5.75
2018-11-28T08:16:25.001Z,5.81
2018-11-28T08:17:05.457Z,5.75
2018-11-28T08:17:45.891Z,5.7
2018-11-28T08:20:10.734Z,5.78
2018-11-28T08:21:05.356Z,5.9
2018-11-28T08:22:46.344Z,6.11
2018-11-28T08:23:28.121Z,6.25
2018-11-28T08:24:08.681Z,6.2
2018-11-28T08:24:49.039Z,6.27
2018-11-28T08:25:28.933Z,6.25
2018-11-28T08:26:09.754Z,6.2
2018-11-28T08:26:51.121Z,6.38
2018-11-28T08:27:33.681Z,6.32
2018-11-28T08:28:14.671Z,6.25
2018-11-28T08:28:58.077Z,6.19
2018-11-28T08:29:39.456Z,6.16
2018-11-28T08:30:20.581Z,6.17
2018-11-28T08:31:01.980Z,6.11
2018-11-28T08:31:43.166Z,6.11
2018-11-28T08:32:22.856Z,6.06
2018-11-28T08:33:03.531Z,6.02
2018-11-28T08:33:45.950Z,5.99
2018-11-28T08:34:25.818Z,6.02
2018-11-28T08:35:06.531Z,6.11
2018-11-28T08:35:47.925Z,6.19
2018-11-28T08:36:27.543Z,6.08
2018-11-28T08:37:08.318Z,6.03
2018-11-28T08:37:49.167Z,6.1
2018-11-28T08:38:29.799Z,6.14
2018-11-28T08:39:10.939Z,6.17
2018-11-28T08:39:51.072Z,6.08
2018-11-28T08:40:31.507Z,6.14
2018-11-28T08:41:11.913Z,6.21
2018-11-28T08:41:52.293Z,6.08
2018-11-28T08:42:33.148Z,6.14
2018-11-28T08:43:14.097Z,6.11
2018-11-28T08:43:54.256Z,6.13
2018-11-28T08:44:34.908Z,6.14
2018-11-28T08:45:15.392Z,6.2
2018-11-28T08:45:55.793Z,6.13
2018-11-28T08:46:36.481Z,6.05
2018-11-28T08:47:16.860Z,6.05
2018-11-28T08:47:58.313Z,6.01
2018-11-28T08:48:39.291Z,6.01
2018-11-28T08:49:19.774Z,5.95
2018-11-28T08:50:00.222Z,5.99
2018-11-28T08:50:40.908Z,6.06
2018-11-28T08:51:21.351Z,6.08
2018-11-28T08:52:01.763Z,6.03
2018-11-28T08:52:42.213Z,6.1
2018-11-28T08:53:23.341Z,6.2
2018-11-28T08:54:03.999Z,6.11
2018-11-28T08:54:44.389Z,6.24
2018-11-28T08:55:24.853Z,6.36
2018-11-28T08:56:06.027Z,6.43
2018-11-28T08:56:45.715Z,6.45
2018-11-28T08:57:27.352Z,6.48
2018-11-28T08:58:07.870Z,6.33
2018-11-28T08:58:48.213Z,6.35
2018-11-28T08:59:29.511Z,6.4
2018-11-28T09:00:09.977Z,6.45
2018-11-28T09:00:50.474Z,6.43
2018-11-28T09:01:30.890Z,6.4
2018-11-28T09:02:11.296Z,6.48
2018-11-28T09:02:51.735Z,6.5
2018-11-28T09:03:32.103Z,6.51
2018-11-28T09:05:24.512Z,6.71
2018-11-28T09:06:04.872Z,6.78
2018-11-28T09:06:45.432Z,6.87
2018-11-28T09:07:25.817Z,6.99
2018-11-28T09:09:13.144Z,7.33
2018-11-28T09:09:54.113Z,7.37
2018-11-28T09:10:34.458Z,7.33
2018-11-28T09:11:14.857Z,7.3
2018-11-28T09:11:55.433Z,7.34
2018-11-28T09:12:35.835Z,7.32
2018-11-28T09:13:16.291Z,7.45
2018-11-28T09:13:56.833Z,7.45
2018-11-28T09:14:37.561Z,7.47
2018-11-28T09:15:18.034Z,7.52
2018-11-28T09:15:58.387Z,7.51
2018-11-28T09:16:38.837Z,7.54
2018-11-28T09:17:19.275Z,7.55
2018-11-28T09:17:59.783Z,7.63
2018-11-28T09:18:40.173Z,7.73
2018-11-28T09:20:28.553Z,7.73
2018-11-28T09:21:08.860Z,7.81
2018-11-28T09:21:49.308Z,7.7
2018-11-28T09:22:29.719Z,7.63
2018-11-28T09:23:10.171Z,7.67
2018-11-28T09:23:52.448Z,7.67
2018-11-28T09:24:32.722Z,7.63
2018-11-28T09:25:13.485Z,7.76
2018-11-28T09:25:53.910Z,7.71
2018-11-28T09:26:34.311Z,7.73
2018-11-28T09:27:14.726Z,7.79
2018-11-28T09:27:55.453Z,7.76
2018-11-28T09:28:36.051Z,7.69
2018-11-28T09:29:16.873Z,7.58
2018-11-28T09:29:57.037Z,7.54
2018-11-28T09:30:38.410Z,7.57
2018-11-28T09:31:18.863Z,7.57
2018-11-28T09:32:56.323Z,7.45
2018-11-28T09:33:37.388Z,7.51
2018-11-28T09:34:17.929Z,7.3
2018-11-28T09:34:58.345Z,7.33
2018-11-28T09:35:40.243Z,7.27
2018-11-28T09:36:20.661Z,7.24
2018-11-28T09:37:00.987Z,7.32
2018-11-28T09:37:45.368Z,7.21
2018-11-28T09:38:21.830Z,7.23
2018-11-28T09:39:02.441Z,7.24
2018-11-28T09:39:43.018Z,7.21
2018-11-28T09:40:23.646Z,7.23
2018-11-28T09:41:03.973Z,7.16
2018-11-28T09:41:44.415Z,7.21
2018-11-28T09:42:24.873Z,7.16
2018-11-28T09:43:05.472Z,7.14
2018-11-28T09:43:46.042Z,7.11
2018-11-28T09:44:26.486Z,7.01
2018-11-28T09:45:06.965Z,7
2018-11-28T09:45:47.421Z,7.08
2018-11-28T09:46:28.382Z,7.05
2018-11-28T09:47:08.807Z,7.01
2018-11-28T09:47:49.202Z,7.09
2018-11-28T09:48:29.588Z,7.15
2018-11-28T09:49:10.043Z,7.16
2018-11-28T09:49:50.791Z,7.14
2018-11-28T09:50:31.247Z,7.07
2018-11-28T09:51:11.665Z,7.04
2018-11-28T09:51:52.181Z,7.09
2018-11-28T09:52:32.575Z,7.05
2018-11-28T09:53:13.038Z,6.99
2018-11-28T09:53:53.401Z,7.09
2018-11-28T09:54:33.831Z,7
2018-11-28T09:56:26.199Z,7.08
2018-11-28T09:57:09.119Z,6.96
2018-11-28T09:57:50.616Z,7.08
2018-11-28T09:58:30.581Z,6.99
2018-11-28T09:59:11.182Z,6.94
2018-11-28T09:59:51.672Z,7.05
2018-11-28T10:00:32.246Z,6.99
2018-11-28T10:01:12.629Z,7.11
2018-11-28T10:01:53.097Z,7.11
2018-11-28T10:02:33.488Z,7.18
2018-11-28T10:03:13.967Z,7.15
2018-11-28T10:03:54.461Z,7.14
2018-11-28T10:04:35.585Z,7.14
2018-11-28T10:05:16.017Z,7.14
2018-11-28T10:05:57.303Z,7.12
2018-11-28T10:06:37.828Z,7.08
2018-11-28T10:07:18.489Z,7.07
2018-11-28T10:07:59.006Z,7.05
2018-11-28T10:08:39.454Z,6.97
2018-11-28T10:09:19.850Z,6.93
2018-11-28T10:10:00.296Z,6.93
2018-11-28T10:10:40.814Z,6.93
2018-11-28T10:11:21.202Z,6.91
2018-11-28T10:12:01.673Z,7.08
2018-11-28T10:12:42.105Z,7.04
2018-11-28T10:13:22.498Z,6.99
2018-11-28T10:14:02.867Z,7.08
2018-11-28T10:14:43.235Z,7.14
2018-11-28T10:15:23.719Z,7.11
2018-11-28T10:16:04.217Z,7.26
2018-11-28T10:16:45.400Z,7.34
2018-11-28T10:17:25.219Z,7.42
2018-11-28T10:18:05.654Z,7.34
2018-11-28T10:18:45.980Z,7.45
2018-11-28T10:19:26.433Z,7.41
2018-11-28T10:20:07.079Z,7.34
2018-11-28T10:20:47.430Z,7.41
2018-11-28T10:21:27.838Z,7.45
2018-11-28T10:22:08.249Z,7.5
2018-11-28T10:22:48.874Z,7.54
2018-11-28T10:23:29.055Z,7.55
2018-11-28T10:25:35.259Z,7.67
2018-11-28T10:26:38.392Z,7.52
2018-11-28T10:27:34.613Z,7.57
2018-11-28T10:28:37.773Z,7.57
2018-11-28T11:07:09.693Z,7.62
2018-11-28T11:09:02.003Z,7.6
2018-11-28T11:09:42.739Z,7.67
2018-11-28T11:10:30.255Z,7.67
2018-11-28T11:11:20.958Z,7.6
2018-11-28T11:12:03.940Z,7.63
2018-11-28T11:12:48.499Z,7.67
2018-11-28T11:13:37.233Z,7.67
2018-11-28T11:14:21.017Z,7.69
2018-11-28T11:15:04.464Z,7.67
2018-11-28T11:15:47.333Z,7.73
2018-11-28T11:16:35.876Z,7.7
2018-11-28T11:17:25.483Z,7.73
2018-11-28T11:18:16.471Z,7.81
2018-11-28T11:18:59.117Z,7.81
2018-11-28T11:19:43.496Z,7.84
2018-11-28T11:20:23.891Z,7.79
2018-11-28T11:21:04.334Z,7.82
2018-11-28T11:21:44.912Z,7.85
2018-11-28T11:22:25.319Z,7.82
2018-11-28T11:24:22.322Z,7.99
2018-11-28T11:25:17.892Z,7.89
2018-11-28T11:26:02.170Z,7.99
2018-11-28T11:26:43.404Z,8.03
2018-11-28T11:27:23.820Z,8
2018-11-28T11:28:04.892Z,8.07
2018-11-28T11:28:45.997Z,8.06
2018-11-28T11:29:26.624Z,8.07
2018-11-28T11:30:14.173Z,8.09
2018-11-28T11:30:56.632Z,8.17
2018-11-28T11:31:37.635Z,8.13
2018-11-28T11:32:18.189Z,8.12
2018-11-28T11:32:58.382Z,8.1
2018-11-28T11:33:39.394Z,8.04
2018-11-28T11:34:20.941Z,8.13